sensor_id;sensor_type;location;lat;lon;timestamp;temperature;humidity
52543;DHT22;38449;52.696;6.186;2023-08-06T00:01:21;14.90;99.90
52543;DHT22;38449;52.696;6.186;2023-08-06T00:03:49;14.90;99.90
52543;DHT22;38449;52.696;6.186;2023-08-06T00:06:15;15.00;99.90
52543;DHT22;38449;52.696;6.186;2023-08-06T00:08:42;14.90;99.90
52543;DHT22;38449;52.696;6.186;2023-08-06T00:11:08;15.00;99.90
52543;DHT22;38449;52.696;6.186;2023-08-06T00:13:34;15.00;99.90
52543;DHT22;38449;52.696;6.186;2023-08-06T00:16:19;15.00;99.90
52543;DHT22;38449;52.696;6.186;2023-08-06T00:18:46;15.10;99.90
52543;DHT22;38449;52.696;6.186;2023-08-06T00:21:12;14.90;99.90
52543;DHT22;38449;52.696;6.186;2023-08-06T00:23:39;14.90;99.90
52543;DHT22;38449;52.696;6.186;2023-08-06T00:26:06;15.00;99.90
52543;DHT22;38449;52.696;6.186;2023-08-06T00:28:32;14.80;99.90
52543;DHT22;38449;52.696;6.186;2023-08-06T00:30:58;15.00;99.90
52543;DHT22;38449;52.696;6.186;2023-08-06T00:33:25;14.90;99.90
52543;DHT22;38449;52.696;6.186;2023-08-06T00:35:51;15.00;99.90
52543;DHT22;38449;52.696;6.186;2023-08-06T00:38:18;14.80;99.90
52543;DHT22;38449;52.696;6.186;2023-08-06T00:40:44;14.90;99.90
52543;DHT22;38449;52.696;6.186;2023-08-06T00:43:11;14.90;99.90
52543;DHT22;38449;52.696;6.186;2023-08-06T00:45:37;14.90;99.90
52543;DHT22;38449;52.696;6.186;2023-08-06T00:48:05;14.90;99.90
52543;DHT22;38449;52.696;6.186;2023-08-06T00:50:31;14.90;99.90
52543;DHT22;38449;52.696;6.186;2023-08-06T00:52:58;14.70;99.90
52543;DHT22;38449;52.696;6.186;2023-08-06T00:55:25;14.80;99.90
52543;DHT22;38449;52.696;6.186;2023-08-06T00:57:51;14.60;99.90
52543;DHT22;38449;52.696;6.186;2023-08-06T01:00:20;14.70;99.90
52543;DHT22;38449;52.696;6.186;2023-08-06T01:02:48;14.60;99.90
52543;DHT22;38449;52.696;6.186;2023-08-06T01:05:15;14.70;99.90
52543;DHT22;38449;52.696;6.186;2023-08-06T01:13:42;14.60;99.90
52543;DHT22;38449;52.696;6.186;2023-08-06T01:16:10;14.70;99.90
52543;DHT22;38449;52.696;6.186;2023-08-06T01:18:37;14.60;99.90
52543;DHT22;38449;52.696;6.186;2023-08-06T01:21:05;14.60;99.90
52543;DHT22;38449;52.696;6.186;2023-08-06T01:23:32;14.60;99.90
52543;DHT22;38449;52.696;6.186;2023-08-06T01:31:30;14.60;99.90
52543;DHT22;38449;52.696;6.186;2023-08-06T01:33:58;14.60;99.90
52543;DHT22;38449;52.696;6.186;2023-08-06T01:36:27;14.60;99.90
52543;DHT22;38449;52.696;6.186;2023-08-06T01:38:54;14.60;99.90
52543;DHT22;38449;52.696;6.186;2023-08-06T01:41:20;14.60;99.90
52543;DHT22;38449;52.696;6.186;2023-08-06T01:43:46;14.60;99.90
52543;DHT22;38449;52.696;6.186;2023-08-06T01:46:13;14.40;99.90
52543;DHT22;38449;52.696;6.186;2023-08-06T01:48:39;14.40;99.90
52543;DHT22;38449;52.696;6.186;2023-08-06T01:51:05;14.40;99.90
52543;DHT22;38449;52.696;6.186;2023-08-06T01:53:32;14.40;99.90
52543;DHT22;38449;52.696;6.186;2023-08-06T01:55:59;14.30;99.90
52543;DHT22;38449;52.696;6.186;2023-08-06T01:58:25;14.40;99.90
52543;DHT22;38449;52.696;6.186;2023-08-06T02:00:51;14.40;99.90
52543;DHT22;38449;52.696;6.186;2023-08-06T02:03:17;14.40;99.90
52543;DHT22;38449;52.696;6.186;2023-08-06T02:05:44;14.40;99.90
52543;DHT22;38449;52.696;6.186;2023-08-06T02:08:11;14.40;99.90
52543;DHT22;38449;52.696;6.186;2023-08-06T02:10:38;14.50;99.90
52543;DHT22;38449;52.696;6.186;2023-08-06T02:13:04;14.50;99.90
52543;DHT22;38449;52.696;6.186;2023-08-06T02:15:31;14.50;99.90
52543;DHT22;38449;52.696;6.186;2023-08-06T02:17:57;14.40;99.90
52543;DHT22;38449;52.696;6.186;2023-08-06T02:20:23;14.40;99.90
52543;DHT22;38449;52.696;6.186;2023-08-06T02:22:49;14.40;99.90
52543;DHT22;38449;52.696;6.186;2023-08-06T02:25:15;14.40;99.90
52543;DHT22;38449;52.696;6.186;2023-08-06T02:27:43;14.30;99.90
52543;DHT22;38449;52.696;6.186;2023-08-06T02:30:10;14.40;99.90
52543;DHT22;38449;52.696;6.186;2023-08-06T02:32:36;14.40;99.90
52543;DHT22;38449;52.696;6.186;2023-08-06T02:35:03;14.50;99.90
52543;DHT22;38449;52.696;6.186;2023-08-06T02:37:29;14.30;99.90
52543;DHT22;38449;52.696;6.186;2023-08-06T02:39:56;14.50;99.90
52543;DHT22;38449;52.696;6.186;2023-08-06T02:42:22;14.40;99.90
52543;DHT22;38449;52.696;6.186;2023-08-06T02:44:49;14.30;99.90
52543;DHT22;38449;52.696;6.186;2023-08-06T02:47:15;14.40;99.90
52543;DHT22;38449;52.696;6.186;2023-08-06T02:49:41;14.40;99.90
52543;DHT22;38449;52.696;6.186;2023-08-06T02:52:09;14.30;99.90
52543;DHT22;38449;52.696;6.186;2023-08-06T02:54:35;14.30;99.90
52543;DHT22;38449;52.696;6.186;2023-08-06T02:57:01;14.50;99.90
52543;DHT22;38449;52.696;6.186;2023-08-06T02:59:27;14.40;99.90
52543;DHT22;38449;52.696;6.186;2023-08-06T03:01:54;14.40;99.90
52543;DHT22;38449;52.696;6.186;2023-08-06T03:04:20;14.30;99.90
52543;DHT22;38449;52.696;6.186;2023-08-06T03:06:46;14.30;99.90
52543;DHT22;38449;52.696;6.186;2023-08-06T03:09:12;14.30;99.90
52543;DHT22;38449;52.696;6.186;2023-08-06T03:11:40;14.30;99.90
52543;DHT22;38449;52.696;6.186;2023-08-06T03:14:06;14.30;99.90
52543;DHT22;38449;52.696;6.186;2023-08-06T03:16:34;14.30;99.90
52543;DHT22;38449;52.696;6.186;2023-08-06T03:19:07;14.40;99.90
52543;DHT22;38449;52.696;6.186;2023-08-06T03:21:33;14.40;99.90
52543;DHT22;38449;52.696;6.186;2023-08-06T03:24:00;14.50;99.90
52543;DHT22;38449;52.696;6.186;2023-08-06T03:26:26;14.50;99.90
52543;DHT22;38449;52.696;6.186;2023-08-06T03:28:52;14.40;99.90
52543;DHT22;38449;52.696;6.186;2023-08-06T03:31:18;14.50;99.90
52543;DHT22;38449;52.696;6.186;2023-08-06T03:33:44;14.40;99.90
52543;DHT22;38449;52.696;6.186;2023-08-06T03:36:11;14.50;99.90
52543;DHT22;38449;52.696;6.186;2023-08-06T03:38:37;14.50;99.90
52543;DHT22;38449;52.696;6.186;2023-08-06T03:41:03;14.40;99.90
52543;DHT22;38449;52.696;6.186;2023-08-06T03:43:30;14.40;99.90
52543;DHT22;38449;52.696;6.186;2023-08-06T03:45:56;14.40;99.90
52543;DHT22;38449;52.696;6.186;2023-08-06T03:48:22;14.60;99.90
52543;DHT22;38449;52.696;6.186;2023-08-06T03:50:48;14.50;99.90
52543;DHT22;38449;52.696;6.186;2023-08-06T03:53:15;14.50;99.90
52543;DHT22;38449;52.696;6.186;2023-08-06T03:55:41;14.50;99.90
52543;DHT22;38449;52.696;6.186;2023-08-06T03:58:08;14.50;99.90
52543;DHT22;38449;52.696;6.186;2023-08-06T04:00:34;14.40;99.90
52543;DHT22;38449;52.696;6.186;2023-08-06T04:03:00;14.50;99.90
52543;DHT22;38449;52.696;6.186;2023-08-06T04:05:26;14.40;99.90
52543;DHT22;38449;52.696;6.186;2023-08-06T04:07:52;14.50;99.90
52543;DHT22;38449;52.696;6.186;2023-08-06T04:10:19;14.40;99.90
52543;DHT22;38449;52.696;6.186;2023-08-06T04:12:45;14.30;99.90
52543;DHT22;38449;52.696;6.186;2023-08-06T04:15:11;14.40;99.90
52543;DHT22;38449;52.696;6.186;2023-08-06T04:17:37;14.40;99.90
52543;DHT22;38449;52.696;6.186;2023-08-06T04:20:04;14.20;99.90
52543;DHT22;38449;52.696;6.186;2023-08-06T04:22:31;14.40;99.90
52543;DHT22;38449;52.696;6.186;2023-08-06T04:24:57;14.40;99.90
52543;DHT22;38449;52.696;6.186;2023-08-06T04:27:23;14.30;99.90
52543;DHT22;38449;52.696;6.186;2023-08-06T04:29:49;14.40;99.90
52543;DHT22;38449;52.696;6.186;2023-08-06T04:32:16;14.40;99.90
52543;DHT22;38449;52.696;6.186;2023-08-06T04:34:43;14.40;99.90
52543;DHT22;38449;52.696;6.186;2023-08-06T04:37:09;14.30;99.90
52543;DHT22;38449;52.696;6.186;2023-08-06T04:39:35;14.30;99.90
52543;DHT22;38449;52.696;6.186;2023-08-06T04:42:02;14.30;99.90
52543;DHT22;38449;52.696;6.186;2023-08-06T04:44:28;14.30;99.90
52543;DHT22;38449;52.696;6.186;2023-08-06T04:46:54;14.30;99.90
52543;DHT22;38449;52.696;6.186;2023-08-06T04:49:21;14.40;99.90
52543;DHT22;38449;52.696;6.186;2023-08-06T04:51:47;14.50;99.90
52543;DHT22;38449;52.696;6.186;2023-08-06T04:54:14;14.40;99.90
52543;DHT22;38449;52.696;6.186;2023-08-06T04:56:43;14.40;99.90
52543;DHT22;38449;52.696;6.186;2023-08-06T04:59:09;14.50;99.90
52543;DHT22;38449;52.696;6.186;2023-08-06T05:01:35;14.40;99.90
52543;DHT22;38449;52.696;6.186;2023-08-06T05:04:02;14.40;99.90
52543;DHT22;38449;52.696;6.186;2023-08-06T05:06:28;14.40;99.90
52543;DHT22;38449;52.696;6.186;2023-08-06T05:08:54;14.30;99.90
52543;DHT22;38449;52.696;6.186;2023-08-06T05:11:20;14.40;99.90
52543;DHT22;38449;52.696;6.186;2023-08-06T05:13:46;14.30;99.90
52543;DHT22;38449;52.696;6.186;2023-08-06T05:16:13;14.40;99.90
52543;DHT22;38449;52.696;6.186;2023-08-06T05:18:39;14.50;99.90
52543;DHT22;38449;52.696;6.186;2023-08-06T05:21:05;14.30;99.90
52543;DHT22;38449;52.696;6.186;2023-08-06T05:23:31;14.40;99.90
52543;DHT22;38449;52.696;6.186;2023-08-06T05:25:58;14.50;99.90
52543;DHT22;38449;52.696;6.186;2023-08-06T05:28:24;14.40;99.90
52543;DHT22;38449;52.696;6.186;2023-08-06T05:30:50;14.60;99.90
52543;DHT22;38449;52.696;6.186;2023-08-06T05:33:16;14.60;99.90
52543;DHT22;38449;52.696;6.186;2023-08-06T05:35:42;14.50;99.90
52543;DHT22;38449;52.696;6.186;2023-08-06T05:38:09;14.50;99.90
52543;DHT22;38449;52.696;6.186;2023-08-06T05:40:35;14.70;99.90
52543;DHT22;38449;52.696;6.186;2023-08-06T05:43:01;14.50;99.90
52543;DHT22;38449;52.696;6.186;2023-08-06T05:45:28;14.60;99.90
52543;DHT22;38449;52.696;6.186;2023-08-06T05:47:54;14.60;99.90
52543;DHT22;38449;52.696;6.186;2023-08-06T05:50:23;14.60;99.90
52543;DHT22;38449;52.696;6.186;2023-08-06T05:52:50;14.70;99.90
52543;DHT22;38449;52.696;6.186;2023-08-06T05:55:16;14.60;99.90
52543;DHT22;38449;52.696;6.186;2023-08-06T05:57:43;14.80;99.90
52543;DHT22;38449;52.696;6.186;2023-08-06T06:00:09;14.70;99.90
52543;DHT22;38449;52.696;6.186;2023-08-06T06:02:36;14.80;99.90
52543;DHT22;38449;52.696;6.186;2023-08-06T06:05:02;14.80;99.90
52543;DHT22;38449;52.696;6.186;2023-08-06T06:07:28;14.90;99.90
52543;DHT22;38449;52.696;6.186;2023-08-06T06:09:54;14.90;99.90
52543;DHT22;38449;52.696;6.186;2023-08-06T06:12:21;14.90;99.90
52543;DHT22;38449;52.696;6.186;2023-08-06T06:14:48;14.80;99.90
52543;DHT22;38449;52.696;6.186;2023-08-06T06:17:14;14.90;99.90
52543;DHT22;38449;52.696;6.186;2023-08-06T06:19:41;14.90;99.90
52543;DHT22;38449;52.696;6.186;2023-08-06T06:22:07;14.80;99.90
52543;DHT22;38449;52.696;6.186;2023-08-06T06:24:33;15.00;99.90
52543;DHT22;38449;52.696;6.186;2023-08-06T06:27:00;15.00;99.90
52543;DHT22;38449;52.696;6.186;2023-08-06T06:29:26;14.90;99.90
52543;DHT22;38449;52.696;6.186;2023-08-06T06:31:52;15.00;99.90
52543;DHT22;38449;52.696;6.186;2023-08-06T06:34:19;15.10;99.90
52543;DHT22;38449;52.696;6.186;2023-08-06T06:36:45;15.00;99.90
52543;DHT22;38449;52.696;6.186;2023-08-06T06:39:11;15.00;99.90
52543;DHT22;38449;52.696;6.186;2023-08-06T06:41:38;15.10;99.90
52543;DHT22;38449;52.696;6.186;2023-08-06T06:44:05;15.20;99.90
52543;DHT22;38449;52.696;6.186;2023-08-06T06:46:32;15.20;99.90
52543;DHT22;38449;52.696;6.186;2023-08-06T06:48:58;15.20;99.90
52543;DHT22;38449;52.696;6.186;2023-08-06T06:51:24;15.20;99.90
52543;DHT22;38449;52.696;6.186;2023-08-06T06:53:50;15.10;99.90
52543;DHT22;38449;52.696;6.186;2023-08-06T06:56:16;15.30;99.90
52543;DHT22;38449;52.696;6.186;2023-08-06T06:58:43;15.30;99.90
52543;DHT22;38449;52.696;6.186;2023-08-06T07:01:09;15.30;99.90
52543;DHT22;38449;52.696;6.186;2023-08-06T07:03:37;15.20;99.90
52543;DHT22;38449;52.696;6.186;2023-08-06T07:06:04;15.30;99.90
52543;DHT22;38449;52.696;6.186;2023-08-06T07:08:31;15.40;99.90
52543;DHT22;38449;52.696;6.186;2023-08-06T07:11:05;15.40;99.90
52543;DHT22;38449;52.696;6.186;2023-08-06T07:13:33;15.50;99.90
52543;DHT22;38449;52.696;6.186;2023-08-06T07:16:00;15.50;99.90
52543;DHT22;38449;52.696;6.186;2023-08-06T07:18:26;15.40;99.90
52543;DHT22;38449;52.696;6.186;2023-08-06T07:20:53;15.50;99.90
52543;DHT22;38449;52.696;6.186;2023-08-06T07:23:21;15.40;99.90
52543;DHT22;38449;52.696;6.186;2023-08-06T07:25:48;15.40;99.90
52543;DHT22;38449;52.696;6.186;2023-08-06T07:28:15;15.50;99.90
52543;DHT22;38449;52.696;6.186;2023-08-06T07:30:43;15.60;99.90
52543;DHT22;38449;52.696;6.186;2023-08-06T07:33:10;15.40;99.90
52543;DHT22;38449;52.696;6.186;2023-08-06T07:35:37;15.50;99.90
52543;DHT22;38449;52.696;6.186;2023-08-06T07:38:04;15.50;99.90
52543;DHT22;38449;52.696;6.186;2023-08-06T07:40:31;15.60;99.90
52543;DHT22;38449;52.696;6.186;2023-08-06T07:42:57;15.80;99.90
52543;DHT22;38449;52.696;6.186;2023-08-06T07:45:24;15.60;99.90
52543;DHT22;38449;52.696;6.186;2023-08-06T07:47:50;15.80;99.90
52543;DHT22;38449;52.696;6.186;2023-08-06T07:50:17;15.80;99.90
52543;DHT22;38449;52.696;6.186;2023-08-06T07:52:43;15.90;99.90
52543;DHT22;38449;52.696;6.186;2023-08-06T07:55:09;15.90;99.90
52543;DHT22;38449;52.696;6.186;2023-08-06T07:57:36;16.00;99.90
52543;DHT22;38449;52.696;6.186;2023-08-06T08:00:04;16.00;99.90
52543;DHT22;38449;52.696;6.186;2023-08-06T08:02:31;16.00;99.90
52543;DHT22;38449;52.696;6.186;2023-08-06T08:04:57;15.90;99.90
52543;DHT22;38449;52.696;6.186;2023-08-06T08:07:23;16.00;99.90
52543;DHT22;38449;52.696;6.186;2023-08-06T08:09:50;16.10;99.90
52543;DHT22;38449;52.696;6.186;2023-08-06T08:12:16;16.10;99.90
52543;DHT22;38449;52.696;6.186;2023-08-06T08:14:42;16.10;99.90
52543;DHT22;38449;52.696;6.186;2023-08-06T08:17:11;16.30;99.90
52543;DHT22;38449;52.696;6.186;2023-08-06T08:19:38;16.30;99.90
52543;DHT22;38449;52.696;6.186;2023-08-06T08:22:04;16.40;99.90
52543;DHT22;38449;52.696;6.186;2023-08-06T08:24:30;16.60;99.90
52543;DHT22;38449;52.696;6.186;2023-08-06T08:26:56;16.60;99.90
52543;DHT22;38449;52.696;6.186;2023-08-06T08:29:23;16.60;99.90
52543;DHT22;38449;52.696;6.186;2023-08-06T08:31:49;16.70;99.90
52543;DHT22;38449;52.696;6.186;2023-08-06T08:34:16;16.70;99.90
52543;DHT22;38449;52.696;6.186;2023-08-06T08:36:43;16.60;99.90
52543;DHT22;38449;52.696;6.186;2023-08-06T08:39:09;16.80;99.90
52543;DHT22;38449;52.696;6.186;2023-08-06T08:41:37;16.90;99.90
52543;DHT22;38449;52.696;6.186;2023-08-06T08:44:07;17.00;99.90
52543;DHT22;38449;52.696;6.186;2023-08-06T08:46:36;16.90;99.90
52543;DHT22;38449;52.696;6.186;2023-08-06T08:49:04;17.00;99.90
52543;DHT22;38449;52.696;6.186;2023-08-06T08:51:32;17.10;99.90
52543;DHT22;38449;52.696;6.186;2023-08-06T08:53:59;17.10;99.90
52543;DHT22;38449;52.696;6.186;2023-08-06T08:56:25;17.30;99.90
52543;DHT22;38449;52.696;6.186;2023-08-06T08:58:51;17.40;99.90
52543;DHT22;38449;52.696;6.186;2023-08-06T09:01:22;17.50;99.90
52543;DHT22;38449;52.696;6.186;2023-08-06T09:03:51;17.70;99.90
52543;DHT22;38449;52.696;6.186;2023-08-06T09:06:18;17.80;99.90
52543;DHT22;38449;52.696;6.186;2023-08-06T09:09:07;18.00;99.90
52543;DHT22;38449;52.696;6.186;2023-08-06T09:11:39;17.90;99.90
52543;DHT22;38449;52.696;6.186;2023-08-06T09:14:08;17.90;99.90
52543;DHT22;38449;52.696;6.186;2023-08-06T09:16:35;17.90;99.90
52543;DHT22;38449;52.696;6.186;2023-08-06T09:19:13;17.90;99.90
52543;DHT22;38449;52.696;6.186;2023-08-06T09:21:40;18.00;99.90
52543;DHT22;38449;52.696;6.186;2023-08-06T09:24:10;18.10;99.90
52543;DHT22;38449;52.696;6.186;2023-08-06T09:26:37;18.30;99.90
52543;DHT22;38449;52.696;6.186;2023-08-06T09:29:08;18.40;99.90
52543;DHT22;38449;52.696;6.186;2023-08-06T09:31:41;18.50;99.90
52543;DHT22;38449;52.696;6.186;2023-08-06T09:34:31;18.40;99.90
52543;DHT22;38449;52.696;6.186;2023-08-06T09:37:13;18.50;99.90
52543;DHT22;38449;52.696;6.186;2023-08-06T09:39:42;18.60;99.90
52543;DHT22;38449;52.696;6.186;2023-08-06T09:42:18;18.80;99.90
52543;DHT22;38449;52.696;6.186;2023-08-06T09:44:44;19.00;99.90
52543;DHT22;38449;52.696;6.186;2023-08-06T09:47:10;19.20;99.90
52543;DHT22;38449;52.696;6.186;2023-08-06T09:52:03;19.50;99.90
52543;DHT22;38449;52.696;6.186;2023-08-06T09:54:32;19.60;99.90
52543;DHT22;38449;52.696;6.186;2023-08-06T09:57:00;19.70;99.90
52543;DHT22;38449;52.696;6.186;2023-08-06T09:59:26;19.90;99.90
52543;DHT22;38449;52.696;6.186;2023-08-06T10:01:54;20.00;99.90
52543;DHT22;38449;52.696;6.186;2023-08-06T10:04:23;20.10;99.90
52543;DHT22;38449;52.696;6.186;2023-08-06T10:06:50;20.10;99.90
52543;DHT22;38449;52.696;6.186;2023-08-06T10:09:16;20.10;99.90
52543;DHT22;38449;52.696;6.186;2023-08-06T10:11:49;20.20;99.90
52543;DHT22;38449;52.696;6.186;2023-08-06T10:14:33;20.50;99.90
52543;DHT22;38449;52.696;6.186;2023-08-06T10:17:01;20.70;99.90
52543;DHT22;38449;52.696;6.186;2023-08-06T10:19:29;20.90;99.90
52543;DHT22;38449;52.696;6.186;2023-08-06T10:22:25;20.80;99.90
52543;DHT22;38449;52.696;6.186;2023-08-06T10:24:55;21.10;99.90
52543;DHT22;38449;52.696;6.186;2023-08-06T10:27:35;21.00;99.90
52543;DHT22;38449;52.696;6.186;2023-08-06T10:30:30;21.20;99.90
52543;DHT22;38449;52.696;6.186;2023-08-06T10:32:58;21.00;99.90
52543;DHT22;38449;52.696;6.186;2023-08-06T10:35:42;21.10;99.90
52543;DHT22;38449;52.696;6.186;2023-08-06T10:38:16;21.00;99.90
52543;DHT22;38449;52.696;6.186;2023-08-06T10:41:36;20.90;99.90
52543;DHT22;38449;52.696;6.186;2023-08-06T10:44:19;20.90;99.90
52543;DHT22;38449;52.696;6.186;2023-08-06T10:46:46;21.00;99.90
52543;DHT22;38449;52.696;6.186;2023-08-06T10:49:17;20.90;99.90
52543;DHT22;38449;52.696;6.186;2023-08-06T10:51:51;21.00;99.90
52543;DHT22;38449;52.696;6.186;2023-08-06T10:54:18;21.30;99.90
52543;DHT22;38449;52.696;6.186;2023-08-06T10:56:44;21.40;99.90
52543;DHT22;38449;52.696;6.186;2023-08-06T10:59:10;21.40;99.90
52543;DHT22;38449;52.696;6.186;2023-08-06T11:01:41;21.60;99.90
52543;DHT22;38449;52.696;6.186;2023-08-06T11:04:07;21.70;99.90
52543;DHT22;38449;52.696;6.186;2023-08-06T11:06:34;21.60;99.90
52543;DHT22;38449;52.696;6.186;2023-08-06T11:09:02;21.60;99.90
52543;DHT22;38449;52.696;6.186;2023-08-06T11:11:29;22.10;99.90
52543;DHT22;38449;52.696;6.186;2023-08-06T11:13:55;21.90;99.90
52543;DHT22;38449;52.696;6.186;2023-08-06T11:16:23;21.90;99.90
52543;DHT22;38449;52.696;6.186;2023-08-06T11:18:54;21.80;99.90
52543;DHT22;38449;52.696;6.186;2023-08-06T11:21:21;21.80;99.90
52543;DHT22;38449;52.696;6.186;2023-08-06T11:23:47;21.80;99.90
52543;DHT22;38449;52.696;6.186;2023-08-06T11:26:21;21.90;99.90
52543;DHT22;38449;52.696;6.186;2023-08-06T11:28:49;21.80;99.90
52543;DHT22;38449;52.696;6.186;2023-08-06T11:31:22;21.80;99.90
52543;DHT22;38449;52.696;6.186;2023-08-06T11:33:52;21.80;99.90
52543;DHT22;38449;52.696;6.186;2023-08-06T11:36:48;21.80;99.90
52543;DHT22;38449;52.696;6.186;2023-08-06T11:39:16;21.90;99.90
52543;DHT22;38449;52.696;6.186;2023-08-06T11:41:42;21.80;99.90
52543;DHT22;38449;52.696;6.186;2023-08-06T11:44:11;21.80;99.90
52543;DHT22;38449;52.696;6.186;2023-08-06T11:46:53;21.80;99.90
52543;DHT22;38449;52.696;6.186;2023-08-06T11:54:40;21.90;99.90
52543;DHT22;38449;52.696;6.186;2023-08-06T11:57:06;21.80;99.90
52543;DHT22;38449;52.696;6.186;2023-08-06T11:59:33;21.80;99.90
52543;DHT22;38449;52.696;6.186;2023-08-06T12:02:03;22.00;99.90
52543;DHT22;38449;52.696;6.186;2023-08-06T12:04:32;22.00;99.90
52543;DHT22;38449;52.696;6.186;2023-08-06T12:07:06;22.20;99.90
52543;DHT22;38449;52.696;6.186;2023-08-06T12:09:33;22.10;99.90
52543;DHT22;38449;52.696;6.186;2023-08-06T12:12:00;21.90;99.90
52543;DHT22;38449;52.696;6.186;2023-08-06T12:14:26;21.90;99.90
52543;DHT22;38449;52.696;6.186;2023-08-06T12:16:52;22.10;99.90
52543;DHT22;38449;52.696;6.186;2023-08-06T12:19:18;22.10;99.90
52543;DHT22;38449;52.696;6.186;2023-08-06T12:21:45;22.20;99.90
52543;DHT22;38449;52.696;6.186;2023-08-06T12:24:11;22.20;99.90
52543;DHT22;38449;52.696;6.186;2023-08-06T12:26:37;22.30;99.90
52543;DHT22;38449;52.696;6.186;2023-08-06T12:29:04;22.40;99.90
52543;DHT22;38449;52.696;6.186;2023-08-06T12:31:30;22.30;99.90
52543;DHT22;38449;52.696;6.186;2023-08-06T12:33:56;21.90;99.90
52543;DHT22;38449;52.696;6.186;2023-08-06T12:36:22;21.80;99.90
52543;DHT22;38449;52.696;6.186;2023-08-06T12:38:48;21.80;99.90
52543;DHT22;38449;52.696;6.186;2023-08-06T12:41:15;21.50;99.90
52543;DHT22;38449;52.696;6.186;2023-08-06T12:43:41;21.10;99.90
52543;DHT22;38449;52.696;6.186;2023-08-06T12:46:07;21.10;99.90
52543;DHT22;38449;52.696;6.186;2023-08-06T12:48:34;20.90;99.90
52543;DHT22;38449;52.696;6.186;2023-08-06T12:51:00;20.60;99.90
52543;DHT22;38449;52.696;6.186;2023-08-06T12:53:26;20.50;99.90
52543;DHT22;38449;52.696;6.186;2023-08-06T12:55:53;20.30;99.90
52543;DHT22;38449;52.696;6.186;2023-08-06T12:58:19;20.40;99.90
52543;DHT22;38449;52.696;6.186;2023-08-06T13:00:45;20.00;99.90
52543;DHT22;38449;52.696;6.186;2023-08-06T13:03:12;20.10;99.90
52543;DHT22;38449;52.696;6.186;2023-08-06T13:05:38;20.00;99.90
52543;DHT22;38449;52.696;6.186;2023-08-06T13:08:05;19.90;99.90
52543;DHT22;38449;52.696;6.186;2023-08-06T13:10:31;19.80;99.90
52543;DHT22;38449;52.696;6.186;2023-08-06T13:12:57;19.50;99.90
52543;DHT22;38449;52.696;6.186;2023-08-06T13:15:23;19.50;99.90
52543;DHT22;38449;52.696;6.186;2023-08-06T13:17:50;19.40;99.90
52543;DHT22;38449;52.696;6.186;2023-08-06T13:20:17;19.30;99.90
52543;DHT22;38449;52.696;6.186;2023-08-06T13:22:45;19.20;99.90
52543;DHT22;38449;52.696;6.186;2023-08-06T13:25:13;19.10;99.90
52543;DHT22;38449;52.696;6.186;2023-08-06T13:27:41;19.00;99.90
52543;DHT22;38449;52.696;6.186;2023-08-06T13:30:10;19.00;99.90
52543;DHT22;38449;52.696;6.186;2023-08-06T13:32:36;18.90;99.90
52543;DHT22;38449;52.696;6.186;2023-08-06T13:35:04;18.90;99.90
52543;DHT22;38449;52.696;6.186;2023-08-06T13:37:30;18.70;99.90
52543;DHT22;38449;52.696;6.186;2023-08-06T13:40:00;18.60;99.90
52543;DHT22;38449;52.696;6.186;2023-08-06T13:42:48;18.50;99.90
52543;DHT22;38449;52.696;6.186;2023-08-06T13:45:14;18.30;99.90
52543;DHT22;38449;52.696;6.186;2023-08-06T13:47:42;18.30;99.90
52543;DHT22;38449;52.696;6.186;2023-08-06T13:50:08;18.30;99.90
52543;DHT22;38449;52.696;6.186;2023-08-06T13:52:38;18.20;99.90
52543;DHT22;38449;52.696;6.186;2023-08-06T13:55:04;18.20;99.90
52543;DHT22;38449;52.696;6.186;2023-08-06T13:57:31;18.20;99.90
52543;DHT22;38449;52.696;6.186;2023-08-06T13:59:57;18.00;99.90
52543;DHT22;38449;52.696;6.186;2023-08-06T14:02:23;17.90;99.90
52543;DHT22;38449;52.696;6.186;2023-08-06T14:04:52;17.80;99.90
52543;DHT22;38449;52.696;6.186;2023-08-06T14:07:19;17.70;99.90
52543;DHT22;38449;52.696;6.186;2023-08-06T14:09:46;17.60;99.90
52543;DHT22;38449;52.696;6.186;2023-08-06T14:12:13;17.50;99.90
52543;DHT22;38449;52.696;6.186;2023-08-06T14:14:40;17.40;99.90
52543;DHT22;38449;52.696;6.186;2023-08-06T14:17:06;17.50;99.90
52543;DHT22;38449;52.696;6.186;2023-08-06T14:19:32;17.40;99.90
52543;DHT22;38449;52.696;6.186;2023-08-06T14:21:59;17.20;99.90
52543;DHT22;38449;52.696;6.186;2023-08-06T14:24:25;17.30;99.90
52543;DHT22;38449;52.696;6.186;2023-08-06T14:26:52;17.30;99.90
52543;DHT22;38449;52.696;6.186;2023-08-06T14:29:19;17.20;99.90
52543;DHT22;38449;52.696;6.186;2023-08-06T14:31:45;17.20;99.90
52543;DHT22;38449;52.696;6.186;2023-08-06T14:34:12;17.10;99.90
52543;DHT22;38449;52.696;6.186;2023-08-06T14:36:38;17.00;99.90
52543;DHT22;38449;52.696;6.186;2023-08-06T14:39:04;17.00;99.90
52543;DHT22;38449;52.696;6.186;2023-08-06T14:41:38;16.90;99.90
52543;DHT22;38449;52.696;6.186;2023-08-06T14:44:05;16.90;99.90
52543;DHT22;38449;52.696;6.186;2023-08-06T14:46:33;16.80;99.90
52543;DHT22;38449;52.696;6.186;2023-08-06T14:48:59;16.90;99.90
52543;DHT22;38449;52.696;6.186;2023-08-06T14:51:25;16.80;99.90
52543;DHT22;38449;52.696;6.186;2023-08-06T14:53:52;16.90;99.90
52543;DHT22;38449;52.696;6.186;2023-08-06T14:56:18;16.80;99.90
52543;DHT22;38449;52.696;6.186;2023-08-06T14:58:44;16.90;99.90
52543;DHT22;38449;52.696;6.186;2023-08-06T15:01:11;16.80;99.90
52543;DHT22;38449;52.696;6.186;2023-08-06T15:03:40;16.90;99.90
52543;DHT22;38449;52.696;6.186;2023-08-06T15:06:07;17.00;99.90
52543;DHT22;38449;52.696;6.186;2023-08-06T15:08:33;16.90;99.90
52543;DHT22;38449;52.696;6.186;2023-08-06T15:11:00;17.00;99.90
52543;DHT22;38449;52.696;6.186;2023-08-06T15:13:32;17.00;99.90
52543;DHT22;38449;52.696;6.186;2023-08-06T15:15:58;16.90;99.90
52543;DHT22;38449;52.696;6.186;2023-08-06T15:18:30;16.90;99.90
52543;DHT22;38449;52.696;6.186;2023-08-06T15:20:56;17.10;99.90
52543;DHT22;38449;52.696;6.186;2023-08-06T15:23:29;16.90;99.90
52543;DHT22;38449;52.696;6.186;2023-08-06T15:25:56;17.00;99.90
52543;DHT22;38449;52.696;6.186;2023-08-06T15:28:28;17.00;99.90
52543;DHT22;38449;52.696;6.186;2023-08-06T15:30:55;17.00;99.90
52543;DHT22;38449;52.696;6.186;2023-08-06T15:33:27;17.10;99.90
52543;DHT22;38449;52.696;6.186;2023-08-06T15:35:53;17.00;99.90
52543;DHT22;38449;52.696;6.186;2023-08-06T15:38:19;17.10;99.90
52543;DHT22;38449;52.696;6.186;2023-08-06T15:40:46;17.10;99.90
52543;DHT22;38449;52.696;6.186;2023-08-06T15:43:13;17.10;99.90
52543;DHT22;38449;52.696;6.186;2023-08-06T15:45:39;17.10;99.90
52543;DHT22;38449;52.696;6.186;2023-08-06T15:48:05;17.10;99.90
52543;DHT22;38449;52.696;6.186;2023-08-06T15:50:33;17.10;99.90
52543;DHT22;38449;52.696;6.186;2023-08-06T15:52:59;17.10;99.90